Time;durP1;ratioP1;P1;durP2;ratioP2;P2;SDS_P1;SDS_P2;PMS_P1;PMS_P2;Temp;Humidity;BMP_temperature;BMP_pressure;BME280_temperature;BME280_humidity;BME280_pressure;Samples;Min_cycle;Max_cycle;Signal;HPM_P1;HPM_P2
2023/03/10 00:01:50;;;;;;;9.00;5.13;;;;;;;;;;4988189;28;20061;-69
2023/03/10 00:04:16;;;;;;;7.97;4.40;;;;;;;;;;4987981;28;20042;-70
2023/03/10 00:06:42;;;;;;;7.47;4.32;;;;;;;;;;4988395;28;20034;-68
2023/03/10 00:09:11;;;;;;;8.65;4.53;;;;;;;;;;4987969;28;20120;-68
2023/03/10 00:11:36;;;;;;;7.53;4.43;;;;;;;;;;4987639;28;20172;-68
2023/03/10 00:14:02;;;;;;;8.13;4.20;;;;;;;;;;4988005;28;20105;-68
2023/03/10 00:16:29;;;;;;;8.60;4.60;;;;;;;;;;4986625;28;20093;-68
2023/03/10 00:18:55;;;;;;;10.90;4.82;;;;;;;;;;4987715;28;20026;-69
2023/03/10 00:21:27;;;;;;;7.93;4.30;;;;;;;;;;4988295;28;20030;-67
2023/03/10 00:23:53;;;;;;;9.50;4.50;;;;;;;;;;4989588;28;20125;-69
2023/03/10 00:26:20;;;;;;;7.40;4.38;;;;;;;;;;4989339;28;20045;-70
2023/03/10 00:28:47;;;;;;;8.27;4.65;;;;;;;;;;4992408;28;20033;-68
2023/03/10 00:31:15;;;;;;;9.65;4.35;;;;;;;;;;4991418;28;20026;-67
2023/03/10 00:33:41;;;;;;;10.23;5.00;;;;;;;;;;4992930;28;20038;-68
2023/03/10 00:36:13;;;;;;;11.63;4.53;;;;;;;;;;4993282;28;20030;-69
2023/03/10 00:38:40;;;;;;;8.15;4.20;;;;;;;;;;4976266;28;20073;-69
2023/03/10 00:41:10;;;;;;;6.00;3.50;;;;;;;;;;4999960;28;20019;-69
2023/03/10 00:43:36;;;;;;;6.20;3.58;;;;;;;;;;4976800;28;20034;-68
2023/03/10 00:46:03;;;;;;;9.50;3.53;;;;;;;;;;4975754;28;20532;-68
2023/03/10 00:48:29;;;;;;;9.48;3.75;;;;;;;;;;4992030;28;20041;-68
2023/03/10 00:50:55;;;;;;;8.98;3.85;;;;;;;;;;4974971;28;20476;-69
2023/03/10 00:53:21;;;;;;;15.88;3.95;;;;;;;;;;4974635;28;20121;-68
2023/03/10 00:56:01;;;;;;;7.85;4.20;;;;;;;;;;4982504;28;20117;-69
2023/03/10 00:58:28;;;;;;;10.45;4.53;;;;;;;;;;4990820;28;20042;-68
2023/03/10 01:00:54;;;;;;;10.30;4.03;;;;;;;;;;4975100;28;20027;-67
2023/03/10 01:03:21;;;;;;;16.25;4.47;;;;;;;;;;4983214;28;20030;-68
2023/03/10 01:05:48;;;;;;;8.50;3.30;;;;;;;;;;4988181;28;20030;-68
2023/03/10 01:08:15;;;;;;;6.10;3.65;;;;;;;;;;4992413;28;20041;-68
2023/03/10 01:10:40;;;;;;;9.80;4.90;;;;;;;;;;4975890;28;20057;-68
2023/03/10 01:13:06;;;;;;;7.72;4.93;;;;;;;;;;4993302;28;20070;-68
2023/03/10 01:15:32;;;;;;;5.90;3.97;;;;;;;;;;4994479;28;20425;-67
2023/03/10 01:18:02;;;;;;;8.45;4.15;;;;;;;;;;4974885;28;20037;-67
2023/03/10 01:20:31;;;;;;;9.38;4.55;;;;;;;;;;4976237;28;20455;-68
2023/03/10 01:22:58;;;;;;;7.75;4.57;;;;;;;;;;4991262;28;20038;-68
2023/03/10 01:25:23;;;;;;;8.32;4.40;;;;;;;;;;4993918;28;20431;-68
2023/03/10 01:27:49;;;;;;;5.25;3.75;;;;;;;;;;4987729;28;20035;-68
2023/03/10 01:30:15;;;;;;;7.00;3.67;;;;;;;;;;4974505;28;20182;-67
2023/03/10 01:32:41;;;;;;;5.97;3.25;;;;;;;;;;4991453;28;20061;-68
2023/03/10 01:35:08;;;;;;;9.45;5.57;;;;;;;;;;4993573;28;20022;-67
2023/03/10 01:37:34;;;;;;;8.57;4.43;;;;;;;;;;4990957;28;20034;-68
2023/03/10 01:40:00;;;;;;;7.72;4.43;;;;;;;;;;4981906;28;20032;-68
2023/03/10 01:42:26;;;;;;;7.32;4.38;;;;;;;;;;4996596;28;20484;-68
2023/03/10 01:45:29;;;;;;;8.57;4.70;;;;;;;;;;4991760;28;20025;-69
2023/03/10 01:47:55;;;;;;;10.20;4.63;;;;;;;;;;4990795;28;20042;-69
2023/03/10 01:50:23;;;;;;;7.63;4.35;;;;;;;;;;4974791;28;20037;-68
2023/03/10 01:52:55;;;;;;;4.97;3.40;;;;;;;;;;4992818;28;20034;-68
2023/03/10 01:55:26;;;;;;;6.05;3.08;;;;;;;;;;4980058;28;20034;-68
2023/03/10 01:57:54;;;;;;;4.65;3.72;;;;;;;;;;4993028;28;20394;-67
2023/03/10 02:00:21;;;;;;;6.10;3.10;;;;;;;;;;4974617;28;20173;-68
2023/03/10 02:03:08;;;;;;;4.43;3.00;;;;;;;;;;4974316;28;20404;-68
2023/03/10 02:05:40;;;;;;;5.35;3.42;;;;;;;;;;4993346;28;20489;-68
2023/03/10 02:08:08;;;;;;;5.50;3.33;;;;;;;;;;4993128;28;20396;-68
2023/03/10 02:10:33;;;;;;;5.28;3.47;;;;;;;;;;4975475;28;20046;-68
2023/03/10 02:12:59;;;;;;;8.50;4.45;;;;;;;;;;4976002;28;20400;-68
2023/03/10 02:15:25;;;;;;;6.05;3.85;;;;;;;;;;4960095;28;20054;-69
2023/03/10 02:17:52;;;;;;;8.15;3.72;;;;;;;;;;4975699;28;20038;-69
2023/03/10 02:20:40;;;;;;;11.73;4.70;;;;;;;;;;4993647;28;20103;-69
2023/03/10 02:23:22;;;;;;;12.07;5.47;;;;;;;;;;4975919;28;20034;-69
2023/03/10 02:25:55;;;;;;;9.63;5.45;;;;;;;;;;4993393;28;20038;-69
2023/03/10 02:28:22;;;;;;;14.02;4.68;;;;;;;;;;4959563;28;20041;-69
2023/03/10 02:30:51;;;;;;;7.88;4.00;;;;;;;;;;4993332;28;20030;-69
2023/03/10 02:33:23;;;;;;;8.23;4.18;;;;;;;;;;4975847;28;20038;-68
2023/03/10 02:35:50;;;;;;;10.23;4.90;;;;;;;;;;4992983;28;20038;-68
2023/03/10 02:38:20;;;;;;;6.60;4.00;;;;;;;;;;4992727;28;20034;-68
2023/03/10 02:40:48;;;;;;;5.57;3.45;;;;;;;;;;4975513;28;20370;-69
2023/03/10 02:43:25;;;;;;;4.83;3.33;;;;;;;;;;4975686;28;20109;-68
2023/03/10 02:46:02;;;;;;;6.65;2.90;;;;;;;;;;4991800;28;20038;-68
2023/03/10 02:48:32;;;;;;;4.07;3.10;;;;;;;;;;4990449;28;20074;-69
2023/03/10 02:51:01;;;;;;;4.22;2.78;;;;;;;;;;4991794;28;20038;-69
2023/03/10 02:53:28;;;;;;;6.70;3.25;;;;;;;;;;4975471;28;20113;-69
2023/03/10 02:55:55;;;;;;;4.13;2.90;;;;;;;;;;4991841;28;20038;-69
2023/03/10 02:58:23;;;;;;;5.95;3.50;;;;;;;;;;4972416;28;20037;-69
2023/03/10 03:00:50;;;;;;;5.22;3.33;;;;;;;;;;4980125;28;20027;-69
2023/03/10 03:03:19;;;;;;;5.55;3.72;;;;;;;;;;4960792;28;20445;-69
2023/03/10 03:05:45;;;;;;;4.45;3.17;;;;;;;;;;4974467;28;20038;-68
2023/03/10 03:08:12;;;;;;;4.80;3.38;;;;;;;;;;4973800;28;20085;-69
2023/03/10 03:10:39;;;;;;;6.72;3.25;;;;;;;;;;4981886;28;20042;-68
2023/03/10 03:13:06;;;;;;;5.22;3.33;;;;;;;;;;4971280;28;20378;-69
2023/03/10 03:15:32;;;;;;;5.80;3.40;;;;;;;;;;4974061;28;20061;-68
2023/03/10 03:18:00;;;;;;;6.47;3.70;;;;;;;;;;4973251;28;20050;-68
2023/03/10 03:20:29;;;;;;;5.22;3.45;;;;;;;;;;4989965;28;20062;-69
2023/03/10 03:22:56;;;;;;;7.13;3.70;;;;;;;;;;4974035;28;20369;-68
2023/03/10 03:25:24;;;;;;;6.18;3.90;;;;;;;;;;4990191;28;20108;-70
2023/03/10 03:27:50;;;;;;;6.88;4.00;;;;;;;;;;4973856;28;20030;-68
2023/03/10 03:30:19;;;;;;;5.93;3.95;;;;;;;;;;4990969;28;20049;-70
2023/03/10 03:32:45;;;;;;;6.38;3.95;;;;;;;;;;4974252;28;20026;-70
2023/03/10 03:35:15;;;;;;;10.10;4.10;;;;;;;;;;4991311;28;20037;-68
2023/03/10 03:37:42;;;;;;;11.05;4.60;;;;;;;;;;4988993;28;20113;-69
2023/03/10 03:40:12;;;;;;;6.60;3.90;;;;;;;;;;4988641;28;20026;-69
2023/03/10 03:42:48;;;;;;;6.63;3.75;;;;;;;;;;4974722;28;20035;-69
2023/03/10 03:45:16;;;;;;;5.40;3.85;;;;;;;;;;4992363;28;20038;-69
2023/03/10 03:47:42;;;;;;;7.57;4.30;;;;;;;;;;4974430;28;20109;-69
2023/03/10 03:50:10;;;;;;;7.00;4.38;;;;;;;;;;4974708;28;20042;-70
2023/03/10 03:52:36;;;;;;;8.20;3.80;;;;;;;;;;4974688;28;20030;-69
2023/03/10 03:55:03;;;;;;;6.78;3.75;;;;;;;;;;4992077;28;20034;-69
2023/03/10 03:57:29;;;;;;;9.85;4.60;;;;;;;;;;4974260;28;20022;-69
2023/03/10 03:59:55;;;;;;;9.80;4.28;;;;;;;;;;4991709;28;20484;-69
2023/03/10 04:02:20;;;;;;;7.72;4.93;;;;;;;;;;4978170;28;20029;-68
2023/03/10 04:04:47;;;;;;;4.68;3.65;;;;;;;;;;4978457;28;20030;-69
2023/03/10 04:07:15;;;;;;;7.43;4.20;;;;;;;;;;4978269;28;20065;-69
2023/03/10 04:09:42;;;;;;;6.20;3.97;;;;;;;;;;4978345;28;20125;-69
2023/03/10 04:12:09;;;;;;;7.57;4.15;;;;;;;;;;4995656;28;20054;-69
2023/03/10 04:14:36;;;;;;;7.28;3.90;;;;;;;;;;4978054;28;20068;-69
2023/03/10 04:17:03;;;;;;;9.55;4.50;;;;;;;;;;4969080;28;20030;-68
2023/03/10 04:19:29;;;;;;;6.80;3.83;;;;;;;;;;5007799;28;20114;-69
2023/03/10 04:22:04;;;;;;;;;;;;;;;;;;4974512;28;20023;-69
2023/03/10 04:24:32;;;;;;;8.75;4.93;;;;;;;;;;5006351;28;19921;-69
2023/03/10 04:26:58;;;;;;;15.68;4.97;;;;;;;;;;4990861;28;20122;-69
2023/03/10 04:29:26;;;;;;;12.93;5.10;;;;;;;;;;4977767;28;20461;-69
2023/03/10 04:31:53;;;;;;;11.30;4.82;;;;;;;;;;4978056;28;20031;-69
2023/03/10 04:34:19;;;;;;;8.07;4.15;;;;;;;;;;4977641;28;20464;-69
2023/03/10 04:36:45;;;;;;;9.95;4.40;;;;;;;;;;4961741;28;20037;-69
2023/03/10 04:39:11;;;;;;;9.95;4.20;;;;;;;;;;4977353;28;20030;-68
2023/03/10 04:41:36;;;;;;;6.85;4.28;;;;;;;;;;4975338;28;20126;-70
2023/03/10 04:44:03;;;;;;;6.45;4.07;;;;;;;;;;4977474;28;20035;-70
2023/03/10 04:46:30;;;;;;;6.80;4.25;;;;;;;;;;4977434;28;20019;-69
2023/03/10 04:48:57;;;;;;;8.80;4.35;;;;;;;;;;4994919;28;20047;-69
2023/03/10 04:51:23;;;;;;;16.70;5.75;;;;;;;;;;4976896;28;20022;-69
2023/03/10 04:53:51;;;;;;;9.85;4.80;;;;;;;;;;4993171;28;20066;-68
2023/03/10 04:56:17;;;;;;;13.77;4.82;;;;;;;;;;4976939;28;20031;-69
2023/03/10 04:58:43;;;;;;;13.20;5.05;;;;;;;;;;4977058;28;20041;-69
2023/03/10 05:01:11;;;;;;;8.68;4.07;;;;;;;;;;4973225;28;20026;-68
2023/03/10 05:03:42;;;;;;;9.63;4.50;;;;;;;;;;4970180;28;20061;-71
2023/03/10 05:06:15;;;;;;;6.55;4.38;;;;;;;;;;4992980;28;20133;-69
2023/03/10 05:08:44;;;;;;;14.20;5.45;;;;;;;;;;4994169;28;20035;-69
2023/03/10 05:11:10;;;;;;;15.63;4.97;;;;;;;;;;4975765;28;20027;-69
2023/03/10 05:13:37;;;;;;;12.70;5.20;;;;;;;;;;4992971;28;20532;-69
2023/03/10 05:16:10;;;;;;;9.23;4.70;;;;;;;;;;4976212;28;20084;-69
2023/03/10 05:18:36;;;;;;;11.70;5.00;;;;;;;;;;4994007;28;20541;-69
2023/03/10 05:21:02;;;;;;;10.52;4.57;;;;;;;;;;4976642;28;20421;-69
2023/03/10 05:23:28;;;;;;;10.63;4.78;;;;;;;;;;4976927;28;20045;-69
2023/03/10 05:25:54;;;;;;;18.48;6.05;;;;;;;;;;4976039;28;20109;-68
2023/03/10 05:28:22;;;;;;;23.83;7.55;;;;;;;;;;4992382;28;20040;-68
2023/03/10 05:30:49;;;;;;;10.43;5.43;;;;;;;;;;4976178;28;20093;-69
2023/03/10 05:33:15;;;;;;;11.52;5.75;;;;;;;;;;4975825;28;20042;-69
2023/03/10 05:35:42;;;;;;;12.63;6.60;;;;;;;;;;4975395;28;20373;-69
2023/03/10 05:38:08;;;;;;;8.13;4.65;;;;;;;;;;4991813;28;20034;-68
2023/03/10 05:40:35;;;;;;;29.42;8.45;;;;;;;;;;4993412;28;20025;-69
2023/03/10 05:43:01;;;;;;;22.67;8.00;;;;;;;;;;4992198;28;20163;-68
2023/03/10 05:45:28;;;;;;;27.70;8.23;;;;;;;;;;4975640;28;20027;-68
2023/03/10 05:47:54;;;;;;;26.25;7.75;;;;;;;;;;4993423;28;20400;-69
2023/03/10 05:50:19;;;;;;;17.98;7.05;;;;;;;;;;4976076;28;20022;-69
2023/03/10 05:52:45;;;;;;;10.48;6.35;;;;;;;;;;4992605;28;20400;-69
2023/03/10 05:55:16;;;;;;;20.98;8.43;;;;;;;;;;4975501;28;20031;-69
2023/03/10 05:57:43;;;;;;;9.25;6.00;;;;;;;;;;4992159;28;20069;-69
2023/03/10 06:00:10;;;;;;;14.15;7.38;;;;;;;;;;4959806;28;20484;-69
2023/03/10 06:02:49;;;;;;;16.60;7.22;;;;;;;;;;4975713;28;20066;-69
2023/03/10 06:05:15;;;;;;;36.15;9.48;;;;;;;;;;4992791;28;20042;-68
2023/03/10 06:07:41;;;;;;;27.00;8.32;;;;;;;;;;4992665;28;20061;-69
2023/03/10 06:10:07;;;;;;;29.15;8.38;;;;;;;;;;4992679;28;20475;-69
2023/03/10 06:12:33;;;;;;;16.95;7.72;;;;;;;;;;4991540;28;20030;-68
2023/03/10 06:14:59;;;;;;;16.65;8.00;;;;;;;;;;4993202;28;20408;-68
2023/03/10 06:17:24;;;;;;;27.25;9.65;;;;;;;;;;4991923;28;20034;-68
2023/03/10 06:19:51;;;;;;;30.88;9.60;;;;;;;;;;4992960;28;20117;-68
2023/03/10 06:22:17;;;;;;;12.82;7.50;;;;;;;;;;4992185;28;20078;-69
2023/03/10 06:24:44;;;;;;;15.48;7.97;;;;;;;;;;4992360;28;20037;-69
2023/03/10 06:27:10;;;;;;;16.52;8.30;;;;;;;;;;4991794;28;20093;-72
2023/03/10 06:29:36;;;;;;;27.58;9.35;;;;;;;;;;4992792;28;20144;-72
2023/03/10 06:32:02;;;;;;;18.80;8.07;;;;;;;;;;4988743;28;20789;-72
2023/03/10 06:34:28;;;;;;;17.40;8.48;;;;;;;;;;4981636;28;20138;-72
2023/03/10 06:36:55;;;;;;;18.25;8.38;;;;;;;;;;4991364;28;20015;-71
2023/03/10 06:39:20;;;;;;;17.73;9.20;;;;;;;;;;4991876;28;20114;-72
2023/03/10 06:41:46;;;;;;;19.08;8.30;;;;;;;;;;4992409;28;20105;-72
2023/03/10 06:44:17;;;;;;;14.80;8.45;;;;;;;;;;4991441;28;20475;-71
2023/03/10 06:46:44;;;;;;;20.27;8.68;;;;;;;;;;4990242;28;20038;-71
2023/03/10 06:49:10;;;;;;;26.83;10.80;;;;;;;;;;4991852;28;20030;-71
2023/03/10 06:51:36;;;;;;;23.17;9.80;;;;;;;;;;4991933;28;20037;-71
2023/03/10 06:54:02;;;;;;;19.92;10.88;;;;;;;;;;4973816;28;20069;-71
2023/03/10 06:56:27;;;;;;;21.00;10.15;;;;;;;;;;4990852;28;20031;-71
2023/03/10 06:58:53;;;;;;;23.70;10.98;;;;;;;;;;4988184;28;20022;-71
2023/03/10 07:01:32;;;;;;;17.65;10.30;;;;;;;;;;4991395;28;20034;-71
2023/03/10 07:04:02;;;;;;;21.15;10.15;;;;;;;;;;4991903;28;20061;-71
2023/03/10 07:06:37;;;;;;;21.92;10.27;;;;;;;;;;4990953;28;20062;-73
2023/03/10 07:09:04;;;;;;;14.27;8.98;;;;;;;;;;4990826;28;20038;-72
2023/03/10 07:11:30;;;;;;;18.40;9.93;;;;;;;;;;4991296;28;20085;-73
2023/03/10 07:13:56;;;;;;;17.95;9.82;;;;;;;;;;4991763;28;20042;-72
2023/03/10 07:16:22;;;;;;;18.95;9.88;;;;;;;;;;4991498;28;20022;-73
2023/03/10 07:18:48;;;;;;;21.25;10.35;;;;;;;;;;4991358;28;20061;-75
2023/03/10 07:21:16;;;;;;;21.95;10.13;;;;;;;;;;4991703;28;20476;-72
2023/03/10 07:23:42;;;;;;;24.33;10.95;;;;;;;;;;4990844;28;20045;-72
2023/03/10 07:26:08;;;;;;;16.98;9.32;;;;;;;;;;4974440;28;20067;-72
2023/03/10 07:28:35;;;;;;;15.07;8.05;;;;;;;;;;4989753;28;20041;-72
2023/03/10 07:31:03;;;;;;;12.57;7.47;;;;;;;;;;4990324;28;20057;-70
2023/03/10 07:33:28;;;;;;;11.75;7.20;;;;;;;;;;4990561;28;20492;-71
2023/03/10 07:35:54;;;;;;;11.50;6.53;;;;;;;;;;4976899;28;20037;-72
2023/03/10 07:38:20;;;;;;;20.75;9.68;;;;;;;;;;4995572;28;20026;-72
2023/03/10 07:40:47;;;;;;;17.42;8.45;;;;;;;;;;4994419;28;20014;-72
2023/03/10 07:43:13;;;;;;;15.63;7.40;;;;;;;;;;4995888;28;20034;-74
2023/03/10 07:45:41;;;;;;;17.52;7.50;;;;;;;;;;5000006;28;20077;-75
2023/03/10 07:48:07;;;;;;;14.55;7.78;;;;;;;;;;4979682;28;20038;-74
2023/03/10 07:50:33;;;;;;;20.00;7.53;;;;;;;;;;4981675;28;20026;-72
2023/03/10 07:52:59;;;;;;;12.38;8.52;;;;;;;;;;4992391;28;20535;-73
2023/03/10 07:55:24;;;;;;;15.32;7.47;;;;;;;;;;4997051;28;20053;-72
2023/03/10 07:57:50;;;;;;;13.43;7.35;;;;;;;;;;4995773;28;20046;-71
2023/03/10 08:00:16;;;;;;;13.88;8.40;;;;;;;;;;4997720;28;20038;-74
2023/03/10 08:02:42;;;;;;;17.50;7.80;;;;;;;;;;4995065;28;20026;-73
2023/03/10 08:05:09;;;;;;;15.25;7.93;;;;;;;;;;4996639;28;20026;-71
2023/03/10 08:07:36;;;;;;;18.27;8.48;;;;;;;;;;4994869;28;20121;-73
2023/03/10 08:10:03;;;;;;;11.57;7.15;;;;;;;;;;4978443;28;20033;-73
2023/03/10 08:12:28;;;;;;;15.70;7.50;;;;;;;;;;4980267;28;20246;-72
2023/03/10 08:14:54;;;;;;;15.57;7.40;;;;;;;;;;4997646;28;20085;-71
2023/03/10 08:17:23;;;;;;;15.05;6.78;;;;;;;;;;4977719;28;20067;-72
2023/03/10 08:19:49;;;;;;;14.00;7.45;;;;;;;;;;4997471;28;20101;-73
2023/03/10 08:22:15;;;;;;;11.90;7.63;;;;;;;;;;4980085;28;20121;-72
2023/03/10 08:24:41;;;;;;;14.20;8.23;;;;;;;;;;4997844;28;20037;-72
2023/03/10 08:27:07;;;;;;;23.95;10.32;;;;;;;;;;4997516;28;20030;-73
2023/03/10 08:29:32;;;;;;;13.80;7.78;;;;;;;;;;4996112;28;20022;-73
2023/03/10 08:31:58;;;;;;;17.95;9.13;;;;;;;;;;4997803;28;20042;-72
2023/03/10 08:34:24;;;;;;;11.52;8.38;;;;;;;;;;5006936;28;20042;-73
2023/03/10 08:36:49;;;;;;;24.90;12.65;;;;;;;;;;4979993;28;20046;-73
2023/03/10 08:39:15;;;;;;;25.45;11.70;;;;;;;;;;4980093;28;20068;-73
2023/03/10 08:41:47;;;;;;;24.42;12.30;;;;;;;;;;4997195;28;20034;-73
2023/03/10 08:44:16;;;;;;;18.98;10.40;;;;;;;;;;4997393;28;20393;-72
2023/03/10 08:46:44;;;;;;;13.20;9.45;;;;;;;;;;4977302;28;20026;-74
2023/03/10 08:49:14;;;;;;;18.30;8.90;;;;;;;;;;4976821;28;20113;-73
2023/03/10 08:51:41;;;;;;;23.55;10.27;;;;;;;;;;4993433;28;20125;-72
2023/03/10 08:54:07;;;;;;;15.20;8.68;;;;;;;;;;4993761;28;20063;-74
2023/03/10 08:56:32;;;;;;;14.52;8.85;;;;;;;;;;4994359;28;20089;-74
2023/03/10 08:58:59;;;;;;;18.70;9.15;;;;;;;;;;4994527;28;20081;-72
2023/03/10 09:01:27;;;;;;;18.48;9.25;;;;;;;;;;4993894;28;20041;-73
2023/03/10 09:03:54;;;;;;;17.00;8.95;;;;;;;;;;4992820;28;20062;-74
2023/03/10 09:06:19;;;;;;;22.88;11.35;;;;;;;;;;4993665;28;20026;-73
2023/03/10 09:08:47;;;;;;;15.07;9.10;;;;;;;;;;4993921;28;20049;-72
2023/03/10 09:11:21;;;;;;;14.00;8.50;;;;;;;;;;4993806;28;20476;-72
2023/03/10 09:13:48;;;;;;;16.38;8.45;;;;;;;;;;4993548;28;20040;-72
2023/03/10 09:16:14;;;;;;;21.15;9.82;;;;;;;;;;4976286;28;20483;-72
2023/03/10 09:18:40;;;;;;;15.55;9.93;;;;;;;;;;4987516;28;20035;-72
2023/03/10 09:21:07;;;;;;;17.67;9.43;;;;;;;;;;4993004;28;20588;-71
2023/03/10 09:23:33;;;;;;;28.55;11.13;;;;;;;;;;4991888;28;20032;-73
2023/03/10 09:25:59;;;;;;;22.10;10.85;;;;;;;;;;4993163;28;20022;-71
2023/03/10 09:28:25;;;;;;;18.77;9.40;;;;;;;;;;4993126;28;20198;-71
2023/03/10 09:30:52;;;;;;;14.23;9.00;;;;;;;;;;4987921;28;20082;-72
2023/03/10 09:33:20;;;;;;;19.42;9.38;;;;;;;;;;4975801;28;20038;-72
2023/03/10 09:35:47;;;;;;;21.58;9.88;;;;;;;;;;4993177;28;20117;-73
2023/03/10 09:38:13;;;;;;;17.08;9.63;;;;;;;;;;4993156;28;20058;-73
2023/03/10 09:40:53;;;;;;;15.05;9.43;;;;;;;;;;4993245;28;20036;-72
2023/03/10 09:43:21;;;;;;;14.50;7.35;;;;;;;;;;4993079;28;20483;-70
2023/03/10 09:45:59;;;;;;;14.07;8.00;;;;;;;;;;4993222;28;20105;-71
2023/03/10 09:48:25;;;;;;;17.55;6.60;;;;;;;;;;4993639;28;20040;-70
2023/03/10 09:50:53;;;;;;;12.00;6.68;;;;;;;;;;4993104;28;20177;-70
2023/03/10 09:53:28;;;;;;;17.70;7.50;;;;;;;;;;4992920;28;20026;-70
2023/03/10 09:55:54;;;;;;;13.77;6.60;;;;;;;;;;4993368;28;20038;-71
2023/03/10 09:58:29;;;;;;;11.48;6.20;;;;;;;;;;4975176;28;20026;-71
2023/03/10 10:00:57;;;;;;;8.55;5.47;;;;;;;;;;4993167;28;20034;-72
2023/03/10 10:03:29;;;;;;;20.15;8.02;;;;;;;;;;4991995;28;20038;-70
2023/03/10 10:05:56;;;;;;;11.40;6.80;;;;;;;;;;4975480;28;20071;-71
2023/03/10 10:08:26;;;;;;;15.35;7.00;;;;;;;;;;4991978;28;20053;-71
2023/03/10 10:10:56;;;;;;;15.68;7.90;;;;;;;;;;4973132;28;20121;-73
2023/03/10 10:13:24;;;;;;;11.68;7.50;;;;;;;;;;4992847;28;20488;-72
2023/03/10 10:15:59;;;;;;;16.05;7.05;;;;;;;;;;4992709;28;20137;-71
2023/03/10 10:18:41;;;;;;;10.70;5.72;;;;;;;;;;4990789;28;20026;-71
2023/03/10 10:21:20;;;;;;;8.65;4.53;;;;;;;;;;4992558;28;20089;-72
2023/03/10 10:23:50;;;;;;;9.82;4.22;;;;;;;;;;4992549;28;20493;-71
2023/03/10 10:26:25;;;;;;;14.82;4.82;;;;;;;;;;4992627;28;20030;-72
2023/03/10 10:28:57;;;;;;;10.00;3.85;;;;;;;;;;4992472;28;20038;-71
2023/03/10 10:31:26;;;;;;;8.77;4.05;;;;;;;;;;4992901;28;20397;-72
2023/03/10 10:33:57;;;;;;;10.48;4.15;;;;;;;;;;4992451;28;20061;-72
2023/03/10 10:36:27;;;;;;;9.55;4.82;;;;;;;;;;4990049;28;20436;-73
2023/03/10 10:38:54;;;;;;;8.05;4.13;;;;;;;;;;4989345;28;20034;-72
2023/03/10 10:41:25;;;;;;;6.85;3.78;;;;;;;;;;4991074;28;20022;-72
2023/03/10 10:43:51;;;;;;;5.63;3.60;;;;;;;;;;4991233;28;20038;-72
2023/03/10 10:46:24;;;;;;;7.93;3.80;;;;;;;;;;4974903;28;20022;-74
2023/03/10 10:49:07;;;;;;;8.10;4.22;;;;;;;;;;4989805;28;20060;-73
2023/03/10 10:51:36;;;;;;;11.27;4.10;;;;;;;;;;4992290;28;20038;-72
2023/03/10 10:54:20;;;;;;;10.63;4.05;;;;;;;;;;4992059;28;20026;-73
2023/03/10 10:56:54;;;;;;;7.75;3.95;;;;;;;;;;4989929;28;20026;-73
2023/03/10 10:59:26;;;;;;;8.13;4.25;;;;;;;;;;4974168;28;20441;-72
2023/03/10 11:01:57;;;;;;;11.80;4.55;;;;;;;;;;4972036;28;20027;-72
2023/03/10 11:04:25;;;;;;;9.95;4.68;;;;;;;;;;4971974;28;20038;-72
2023/03/10 11:06:52;;;;;;;8.73;3.38;;;;;;;;;;4972351;28;20027;-71
2023/03/10 11:09:21;;;;;;;6.00;3.55;;;;;;;;;;4971905;28;20034;-74
2023/03/10 11:11:47;;;;;;;5.22;3.22;;;;;;;;;;4971577;28;20034;-73
2023/03/10 11:14:15;;;;;;;5.57;3.88;;;;;;;;;;4971620;28;20212;-72
2023/03/10 11:16:49;;;;;;;12.13;4.32;;;;;;;;;;4972189;28;20339;-71
2023/03/10 11:19:21;;;;;;;8.43;3.55;;;;;;;;;;4971864;28;20042;-73
2023/03/10 11:21:51;;;;;;;6.03;4.03;;;;;;;;;;4987854;28;20125;-72
2023/03/10 11:24:25;;;;;;;12.70;4.25;;;;;;;;;;4990663;28;20495;-72
2023/03/10 11:27:12;;;;;;;7.32;3.55;;;;;;;;;;4972709;28;20144;-72
2023/03/10 11:29:58;;;;;;;7.93;3.28;;;;;;;;;;4989344;28;20189;-72
2023/03/10 11:32:49;;;;;;;8.40;4.57;;;;;;;;;;4991644;28;20045;-72
2023/03/10 11:35:24;;;;;;;9.52;4.07;;;;;;;;;;4991322;28;20065;-72
2023/03/10 11:38:05;;;;;;;6.82;3.38;;;;;;;;;;4973752;28;20128;-72
2023/03/10 11:40:55;;;;;;;11.02;4.38;;;;;;;;;;4992222;28;20030;-72
2023/03/10 11:43:22;;;;;;;8.15;4.15;;;;;;;;;;4991816;28;20412;-72
2023/03/10 11:45:53;;;;;;;10.85;5.10;;;;;;;;;;4991608;28;20023;-72
2023/03/10 11:48:40;;;;;;;9.68;5.10;;;;;;;;;;4990970;28;20046;-72
2023/03/10 11:51:17;;;;;;;7.82;4.30;;;;;;;;;;4975658;28;20042;-72
2023/03/10 11:53:50;;;;;;;6.30;3.45;;;;;;;;;;4975898;28;20436;-73
2023/03/10 11:56:17;;;;;;;;;;;;;;;;;;4987415;28;20085;-72
2023/03/10 11:59:08;;;;;;;8.52;3.25;;;;;;;;;;4991104;28;19909;-71
2023/03/10 12:02:01;;;;;;;7.40;3.33;;;;;;;;;;5003424;28;20030;-72
2023/03/10 12:04:57;;;;;;;8.30;3.45;;;;;;;;;;4970933;28;20101;-73
2023/03/10 12:07:34;;;;;;;9.05;3.40;;;;;;;;;;4990582;28;20030;-73
2023/03/10 12:10:11;;;;;;;14.35;4.55;;;;;;;;;;4991305;28;20042;-72
2023/03/10 12:12:42;;;;;;;16.08;4.35;;;;;;;;;;4991322;28;20038;-72
2023/03/10 12:15:18;;;;;;;9.85;3.53;;;;;;;;;;4991310;28;20037;-72
2023/03/10 12:17:48;;;;;;;5.40;3.30;;;;;;;;;;4990987;28;20048;-73
2023/03/10 12:20:16;;;;;;;9.07;3.40;;;;;;;;;;4990523;28;20620;-73
2023/03/10 12:22:50;;;;;;;14.80;3.88;;;;;;;;;;4993568;28;20031;-73
2023/03/10 12:25:28;;;;;;;6.47;3.20;;;;;;;;;;4995555;28;20512;-73
2023/03/10 12:28:13;;;;;;;8.20;3.65;;;;;;;;;;4991030;28;20030;-73
2023/03/10 12:30:49;;;;;;;7.60;3.20;;;;;;;;;;4977859;28;20118;-72
2023/03/10 12:33:36;;;;;;;12.18;4.07;;;;;;;;;;4995663;28;20092;-73
2023/03/10 12:36:10;;;;;;;7.70;3.22;;;;;;;;;;4988425;28;20031;-73
2023/03/10 12:38:42;;;;;;;9.43;3.80;;;;;;;;;;4994330;28;20099;-72
2023/03/10 12:41:09;;;;;;;8.45;4.00;;;;;;;;;;4995258;28;20077;-72
2023/03/10 12:43:43;;;;;;;10.88;4.10;;;;;;;;;;4997207;28;20069;-72
2023/03/10 12:46:15;;;;;;;11.60;4.32;;;;;;;;;;4995576;28;20038;-72
2023/03/10 12:48:52;;;;;;;6.63;3.45;;;;;;;;;;4996200;28;20382;-72
2023/03/10 12:51:23;;;;;;;13.18;4.72;;;;;;;;;;4978367;28;20483;-72
2023/03/10 12:54:12;;;;;;;20.83;4.88;;;;;;;;;;4994051;28;20042;-72
2023/03/10 12:56:42;;;;;;;10.27;4.53;;;;;;;;;;4994946;28;20038;-72
2023/03/10 12:59:27;;;;;;;9.90;3.20;;;;;;;;;;4994652;28;20042;-71
2023/03/10 13:01:53;;;;;;;18.13;4.95;;;;;;;;;;4994632;28;20030;-71
2023/03/10 13:04:20;;;;;;;17.70;4.47;;;;;;;;;;4994471;28;20033;-72
2023/03/10 13:06:47;;;;;;;13.77;3.92;;;;;;;;;;4994641;28;20038;-73
2023/03/10 13:09:35;;;;;;;10.75;4.07;;;;;;;;;;4994311;28;20026;-72
2023/03/10 13:12:13;;;;;;;11.02;4.35;;;;;;;;;;4994280;28;20035;-72
2023/03/10 13:14:41;;;;;;;5.80;3.42;;;;;;;;;;4994485;28;20042;-73
2023/03/10 13:17:23;;;;;;;12.13;4.05;;;;;;;;;;4993566;28;20034;-72
2023/03/10 13:20:17;;;;;;;14.77;4.35;;;;;;;;;;4994317;28;20085;-72
2023/03/10 13:22:54;;;;;;;9.55;3.70;;;;;;;;;;4991706;28;20042;-72
2023/03/10 13:25:20;;;;;;;8.35;3.70;;;;;;;;;;4994421;28;20539;-73
2023/03/10 13:27:47;;;;;;;8.20;4.15;;;;;;;;;;4994428;28;20050;-73
2023/03/10 13:30:18;;;;;;;13.63;3.72;;;;;;;;;;4994377;28;20389;-73
2023/03/10 13:32:57;;;;;;;8.63;3.60;;;;;;;;;;4993680;28;20046;-73
2023/03/10 13:35:37;;;;;;;15.88;4.93;;;;;;;;;;4993892;28;20050;-72
2023/03/10 13:38:09;;;;;;;9.40;3.40;;;;;;;;;;4992735;28;20042;-73
2023/03/10 13:40:38;;;;;;;14.40;3.53;;;;;;;;;;4993896;28;20437;-72
2023/03/10 13:43:06;;;;;;;7.68;3.83;;;;;;;;;;4994022;28;20049;-73
2023/03/10 13:45:33;;;;;;;7.20;3.75;;;;;;;;;;4994266;28;20050;-72
2023/03/10 13:48:01;;;;;;;5.93;3.38;;;;;;;;;;4993152;28;20049;-72
2023/03/10 13:50:29;;;;;;;5.13;3.20;;;;;;;;;;4993952;28;20087;-72
2023/03/10 13:52:58;;;;;;;6.80;3.47;;;;;;;;;;4993615;28;20396;-72
2023/03/10 13:55:27;;;;;;;6.90;3.63;;;;;;;;;;4993949;28;20496;-73
2023/03/10 13:57:54;;;;;;;6.90;3.35;;;;;;;;;;4992916;28;20034;-72
2023/03/10 14:00:25;;;;;;;9.88;3.53;;;;;;;;;;4993323;28;20433;-73
2023/03/10 14:02:52;;;;;;;7.07;3.75;;;;;;;;;;4993744;28;20077;-72
2023/03/10 14:05:46;;;;;;;6.80;3.67;;;;;;;;;;4993378;28;20156;-72
2023/03/10 14:08:32;;;;;;;9.70;4.57;;;;;;;;;;4975780;28;20400;-73
2023/03/10 14:11:29;;;;;;;7.30;3.75;;;;;;;;;;4992884;28;20137;-73
2023/03/10 14:13:54;;;;;;;7.22;3.78;;;;;;;;;;4993522;28;20034;-72
2023/03/10 14:16:20;;;;;;;6.43;4.45;;;;;;;;;;4992667;28;20495;-72
2023/03/10 14:18:46;;;;;;;10.50;4.72;;;;;;;;;;4992981;28;20038;-72
2023/03/10 14:21:31;;;;;;;8.23;4.60;;;;;;;;;;4993285;28;20380;-72
2023/03/10 14:24:13;;;;;;;9.43;4.53;;;;;;;;;;4992721;28;20138;-72
2023/03/10 14:26:39;;;;;;;9.45;4.70;;;;;;;;;;4975339;28;20484;-72
2023/03/10 14:29:14;;;;;;;8.98;4.50;;;;;;;;;;4975292;28;20022;-72
2023/03/10 14:31:56;;;;;;;7.10;4.20;;;;;;;;;;4995760;28;20035;-73
2023/03/10 14:34:21;;;;;;;9.85;3.78;;;;;;;;;;4993093;28;20485;-72
2023/03/10 14:36:47;;;;;;;10.57;4.57;;;;;;;;;;4993679;28;20041;-73
2023/03/10 14:39:13;;;;;;;6.05;3.50;;;;;;;;;;4984932;28;20554;-72
2023/03/10 14:41:38;;;;;;;5.57;2.50;;;;;;;;;;4991967;28;20484;-73
2023/03/10 14:44:04;;;;;;;4.80;2.90;;;;;;;;;;4992295;28;20065;-71
2023/03/10 14:46:33;;;;;;;8.38;3.05;;;;;;;;;;4990358;28;20404;-72
2023/03/10 14:48:59;;;;;;;5.47;3.40;;;;;;;;;;4992446;28;20046;-71
2023/03/10 14:51:25;;;;;;;6.05;2.63;;;;;;;;;;4992247;28;20037;-71